Time;durP1;ratioP1;P1;durP2;ratioP2;P2;SDS_P1;SDS_P2;PMS_P1;PMS_P2;Temp;Humidity;BMP_temperature;BMP_pressure;BME280_temperature;BME280_humidity;BME280_pressure;Samples;Min_cycle;Max_cycle;Signal;HPM_P1;HPM_P2
2024/03/19 00:03:52;;;;;;;27.00;16.90;;;;;;;3.23;99.46;100769.30;178410;1256;45900;-82
2024/03/19 00:07:55;;;;;;;22.30;16.90;;;;;;;3.22;98.98;100770.23;178190;1256;58395;-83
2024/03/19 00:11:57;;;;;;;28.90;18.00;;;;;;;3.15;99.91;100771.80;178952;1256;46088;-81
2024/03/19 00:16:00;;;;;;;23.30;15.20;;;;;;;3.03;100.00;100774.23;178800;1256;44050;-81
2024/03/19 00:20:05;;;;;;;25.00;15.40;;;;;;;2.94;100.00;100769.85;179591;1256;45978;-81
2024/03/19 00:24:08;;;;;;;27.50;16.20;;;;;;;2.83;100.00;100765.76;178731;1256;46098;-81
2024/03/19 00:28:11;;;;;;;30.10;16.70;;;;;;;2.73;100.00;100769.47;179024;1255;58217;-81
2024/03/19 00:32:14;;;;;;;24.80;14.20;;;;;;;2.65;100.00;100772.77;178355;1256;46016;-82
2024/03/19 00:36:17;;;;;;;19.50;12.80;;;;;;;2.61;100.00;100777.68;178192;1255;46119;-82
2024/03/19 00:40:20;;;;;;;23.30;15.70;;;;;;;2.50;100.00;100776.36;178189;1255;46114;-82
2024/03/19 00:44:24;;;;;;;34.90;20.90;;;;;;;2.48;100.00;100777.86;178709;1256;45327;-82
2024/03/19 00:48:27;;;;;;;28.20;15.90;;;;;;;2.59;100.00;100776.02;177412;1256;59729;-81
2024/03/19 00:52:29;;;;;;;28.70;18.60;;;;;;;2.67;100.00;100778.48;178336;1256;46081;-81
2024/03/19 00:56:32;;;;;;;23.40;15.60;;;;;;;2.66;100.00;100780.98;177635;1256;46094;-82
2024/03/19 01:00:35;;;;;;;28.10;16.00;;;;;;;2.64;100.00;100780.55;178698;1256;46064;-82
2024/03/19 01:04:38;;;;;;;22.10;15.80;;;;;;;2.56;100.00;100782.09;178151;1256;46045;-81
2024/03/19 01:08:47;;;;;;;22.20;15.10;;;;;;;2.51;100.00;100779.14;178243;1256;59619;-82
2024/03/19 01:12:49;;;;;;;30.80;16.10;;;;;;;2.50;100.00;100782.34;177088;1258;44789;-82
2024/03/19 01:16:52;;;;;;;35.80;20.90;;;;;;;2.52;100.00;100784.15;178415;1255;46045;-81
2024/03/19 01:20:55;;;;;;;31.70;19.10;;;;;;;2.58;100.00;100786.58;178788;1256;45892;-81
2024/03/19 01:24:58;;;;;;;26.20;16.10;;;;;;;2.60;100.00;100790.16;178551;1255;46084;-80
2024/03/19 01:29:01;;;;;;;30.80;16.80;;;;;;;2.60;100.00;100787.88;177896;1256;59782;-82
2024/03/19 01:33:04;;;;;;;21.40;17.40;;;;;;;2.64;100.00;100787.90;177519;1256;46093;-81
2024/03/19 01:37:06;;;;;;;24.70;15.40;;;;;;;2.72;100.00;100786.00;177801;1255;46045;-81
2024/03/19 01:41:14;;;;;;;26.10;15.50;;;;;;;2.83;100.00;100782.40;178081;1256;46231;-81
2024/03/19 01:45:22;;;;;;;26.40;17.60;;;;;;;2.95;100.00;100781.16;178595;1255;46425;-81
2024/03/19 01:49:25;;;;;;;29.50;18.50;;;;;;;3.08;100.00;100780.46;178647;1255;58639;-81
2024/03/19 01:53:29;;;;;;;34.20;18.50;;;;;;;3.16;100.00;100778.20;177540;1256;46169;-80
2024/03/19 01:57:33;;;;;;;22.00;17.00;;;;;;;3.22;100.00;100781.45;179026;1255;46033;-82
2024/03/19 02:01:35;;;;;;;30.00;18.40;;;;;;;3.24;100.00;100780.50;178223;1256;46055;-81
2024/03/19 02:05:39;;;;;;;27.70;19.00;;;;;;;3.24;100.00;100782.41;177420;1256;46096;-81
2024/03/19 02:09:42;;;;;;;34.70;19.90;;;;;;;3.26;100.00;100784.09;178203;1255;59858;-81
2024/03/19 02:13:45;;;;;;;27.30;16.70;;;;;;;3.28;100.00;100789.24;177950;1256;46140;-82
2024/03/19 02:17:47;;;;;;;29.40;18.30;;;;;;;3.29;100.00;100786.94;177328;1255;46157;-82
2024/03/19 02:21:50;;;;;;;22.60;15.20;;;;;;;3.20;100.00;100785.56;177483;1259;46032;-81
2024/03/19 02:25:53;;;;;;;29.10;16.80;;;;;;;3.11;100.00;100786.14;177696;1256;46240;-82
2024/03/19 02:29:56;;;;;;;27.00;16.40;;;;;;;3.13;100.00;100789.89;178237;1259;59397;-81
2024/03/19 02:33:59;;;;;;;21.10;14.70;;;;;;;3.17;100.00;100788.86;177567;1255;46288;-81
2024/03/19 02:38:02;;;;;;;25.20;15.50;;;;;;;3.17;100.00;100792.02;178199;1259;44367;-82
2024/03/19 02:42:05;;;;;;;24.00;16.50;;;;;;;3.13;100.00;100794.98;178803;1256;46425;-81
2024/03/19 02:46:08;;;;;;;23.30;16.00;;;;;;;3.07;100.00;100795.77;177364;1256;46105;-81
2024/03/19 02:50:11;;;;;;;21.20;16.60;;;;;;;3.02;100.00;100797.90;178486;1255;58351;-82
2024/03/19 02:54:14;;;;;;;20.90;14.80;;;;;;;3.04;100.00;100799.91;177514;1255;46061;-81
2024/03/19 02:58:16;;;;;;;20.60;14.60;;;;;;;3.07;100.00;100805.05;177544;1256;46038;-82
2024/03/19 03:02:19;;;;;;;21.10;14.90;;;;;;;3.03;100.00;100808.73;177326;1256;46102;-82
2024/03/19 03:06:22;;;;;;;29.50;18.40;;;;;;;2.81;100.00;100809.10;179441;1255;44336;-81
2024/03/19 03:10:25;;;;;;;28.80;17.40;;;;;;;2.66;100.00;100816.69;178835;1256;59594;-81
2024/03/19 03:14:28;;;;;;;24.30;18.40;;;;;;;2.57;100.00;100818.10;177552;1256;46247;-81
2024/03/19 03:18:31;;;;;;;31.00;18.60;;;;;;;2.42;100.00;100820.10;179190;1258;44579;-81
2024/03/19 03:22:34;;;;;;;28.50;17.50;;;;;;;2.30;100.00;100823.70;179006;1256;44695;-81
2024/03/19 03:26:38;;;;;;;43.70;24.00;;;;;;;2.26;100.00;100826.65;178635;1256;46052;-81
2024/03/19 03:30:41;;;;;;;30.40;19.90;;;;;;;2.25;100.00;100825.84;178713;1259;60222;-82
2024/03/19 03:34:43;;;;;;;38.60;23.90;;;;;;;2.25;100.00;100831.61;178432;1255;45918;-82
2024/03/19 03:38:46;;;;;;;47.50;26.80;;;;;;;2.19;100.00;100834.11;177868;1256;46080;-82
2024/03/19 03:42:50;;;;;;;32.90;18.70;;;;;;;2.13;100.00;100838.02;177900;1256;45994;-81
2024/03/19 03:47:03;;;;;;;31.50;19.80;;;;;;;2.12;100.00;100838.39;178509;1256;44840;-81
2024/03/19 03:51:06;;;;;;;28.60;15.20;;;;;;;2.13;100.00;100843.58;178837;1255;58267;-82
2024/03/19 03:55:10;;;;;;;30.40;19.40;;;;;;;2.18;100.00;100847.09;178151;1256;46324;-81
2024/03/19 03:59:13;;;;;;;23.90;17.90;;;;;;;2.20;100.00;100846.16;178196;1256;46055;-80
2024/03/19 04:03:16;;;;;;;23.50;17.40;;;;;;;2.21;100.00;100846.98;178208;1256;45550;-80
2024/03/19 04:07:19;;;;;;;25.20;17.50;;;;;;;2.21;100.00;100850.13;178868;1255;46115;-80
2024/03/19 04:11:22;;;;;;;32.30;18.60;;;;;;;2.18;100.00;100856.92;178388;1256;59256;-80
2024/03/19 04:15:25;;;;;;;25.30;15.50;;;;;;;2.20;100.00;100858.02;179550;1255;45968;-80
2024/03/19 04:19:27;;;;;;;25.10;15.90;;;;;;;2.23;100.00;100861.45;180088;1256;46013;-83
2024/03/19 04:23:31;;;;;;;21.90;17.10;;;;;;;2.17;100.00;100864.80;180721;1256;44226;-83
2024/03/19 04:27:34;;;;;;;30.40;17.30;;;;;;;2.19;100.00;100871.40;179031;1255;45968;-84
2024/03/19 04:31:37;;;;;;;23.50;14.50;;;;;;;2.26;100.00;100869.36;180230;1256;60132;-85
2024/03/19 04:35:40;;;;;;;32.80;20.10;;;;;;;2.28;100.00;100873.13;180202;1255;44245;-83
2024/03/19 04:39:47;;;;;;;20.70;16.50;;;;;;;2.34;100.00;100874.83;180634;1256;46009;-84
2024/03/19 04:43:50;;;;;;;32.80;20.20;;;;;;;2.38;100.00;100875.73;178534;1256;46195;-84
2024/03/19 04:47:53;;;;;;;28.00;19.50;;;;;;;2.43;100.00;100875.02;179482;1256;44318;-83
2024/03/19 04:51:56;;;;;;;37.70;21.00;;;;;;;2.48;100.00;100880.11;179383;1255;59837;-84
2024/03/19 04:55:58;;;;;;;31.80;20.60;;;;;;;2.50;100.00;100881.41;180069;1256;46076;-84
2024/03/19 05:00:02;;;;;;;30.00;20.00;;;;;;;2.51;100.00;100885.74;179054;1255;46034;-83
2024/03/19 05:04:05;;;;;;;33.50;18.50;;;;;;;2.50;100.00;100890.17;179150;1255;46180;-84
2024/03/19 05:08:08;;;;;;;24.70;17.50;;;;;;;2.51;100.00;100890.13;178609;1257;46031;-83
2024/03/19 05:12:11;;;;;;;37.00;22.70;;;;;;;2.46;100.00;100891.55;177914;1256;59615;-83
2024/03/19 05:16:14;;;;;;;43.80;25.00;;;;;;;2.44;100.00;100894.44;178446;1255;46115;-84
2024/03/19 05:20:17;;;;;;;44.00;23.00;;;;;;;2.49;100.00;100899.67;179031;1256;46118;-84
2024/03/19 05:24:20;;;;;;;38.90;25.30;;;;;;;2.53;100.00;100900.37;178697;1257;46070;-83
2024/03/19 05:28:23;;;;;;;35.60;24.10;;;;;;;2.61;100.00;100900.42;178541;1255;44030;-83
2024/03/19 05:32:26;;;;;;;48.80;28.80;;;;;;;2.73;100.00;100900.86;180024;1256;59718;-84
2024/03/19 05:36:28;;;;;;;33.90;22.40;;;;;;;2.81;100.00;100904.05;179583;1256;46049;-84
2024/03/19 05:40:32;;;;;;;39.10;24.60;;;;;;;2.77;100.00;100909.48;179519;1256;44838;-83
2024/03/19 05:44:35;;;;;;;34.80;23.80;;;;;;;2.82;100.00;100912.77;179120;1255;44068;-83
2024/03/19 05:48:38;;;;;;;38.40;23.10;;;;;;;2.92;100.00;100915.17;179792;1256;44341;-84
2024/03/19 05:52:41;;;;;;;33.80;22.90;;;;;;;2.97;100.00;100917.61;180061;1257;59445;-82
2024/03/19 05:56:44;;;;;;;33.50;19.80;;;;;;;2.99;100.00;100926.63;178937;1256;45935;-83
2024/03/19 06:00:47;;;;;;;40.90;18.90;;;;;;;2.97;100.00;100932.34;179160;1256;46019;-83
2024/03/19 06:04:52;;;;;;;28.00;17.60;;;;;;;2.98;100.00;100936.82;179462;1256;46004;-82
2024/03/19 06:08:54;;;;;;;25.80;16.80;;;;;;;3.02;100.00;100938.96;180687;1256;44067;-83
2024/03/19 06:12:57;;;;;;;36.30;18.50;;;;;;;3.08;100.00;100937.34;178558;1256;57936;-81
2024/03/19 06:17:00;;;;;;;27.90;17.80;;;;;;;3.10;100.00;100938.98;178722;1256;46102;-83
2024/03/19 06:21:04;;;;;;;23.50;17.50;;;;;;;3.09;100.00;100941.16;178238;1257;46111;-82
2024/03/19 06:25:07;;;;;;;34.20;20.80;;;;;;;3.12;100.00;100938.02;178760;1255;45911;-82
2024/03/19 06:29:10;;;;;;;69.40;55.10;;;;;;;3.18;100.00;100937.98;177954;1256;45941;-83
2024/03/19 06:33:13;;;;;;;34.20;19.30;;;;;;;3.21;100.00;100935.20;178531;1256;59670;-83
2024/03/19 06:37:16;;;;;;;36.10;21.50;;;;;;;3.32;100.00;100936.70;178513;1255;46061;-83
2024/03/19 06:41:19;;;;;;;53.20;37.70;;;;;;;3.47;100.00;100941.86;178592;1255;46168;-83
2024/03/19 06:45:22;;;;;;;40.10;25.30;;;;;;;3.68;100.00;100937.88;178453;1256;45949;-83
2024/03/19 06:49:25;;;;;;;27.90;19.30;;;;;;;4.13;99.65;100938.23;179380;1256;45981;-83
2024/03/19 06:53:28;;;;;;;26.40;18.80;;;;;;;4.55;97.10;100939.13;178606;1255;59641;-83
2024/03/19 06:57:32;;;;;;;28.20;18.70;;;;;;;5.04;95.73;100944.77;179497;1256;44799;-83
2024/03/19 07:01:36;;;;;;;23.30;15.00;;;;;;;5.46;91.31;100940.30;179104;1256;44201;-83
2024/03/19 07:05:43;;;;;;;24.00;14.50;;;;;;;5.71;85.21;100936.06;179871;1256;46143;-83
2024/03/19 07:09:48;;;;;;;25.00;16.10;;;;;;;5.94;85.02;100938.74;179209;1256;44673;-82
2024/03/19 07:13:51;;;;;;;25.50;16.90;;;;;;;6.06;84.24;100943.64;178201;1259;58275;-83
2024/03/19 07:17:53;;;;;;;24.50;16.50;;;;;;;6.20;84.59;100942.02;177897;1256;44141;-83
2024/03/19 07:21:57;;;;;;;26.40;15.20;;;;;;;6.27;81.51;100945.69;179161;1256;46598;-83
2024/03/19 07:26:00;;;;;;;28.10;16.30;;;;;;;6.25;81.40;100949.31;179048;1256;46100;-83
2024/03/19 07:30:14;;;;;;;27.70;15.30;;;;;;;6.15;82.57;100952.14;178669;1258;46046;-82
2024/03/19 07:34:17;;;;;;;23.60;16.20;;;;;;;6.10;82.39;100955.36;177904;1256;58348;-82
2024/03/19 07:38:19;;;;;;;25.30;15.70;;;;;;;6.14;81.57;100961.34;178878;1255;45880;-83
2024/03/19 07:42:22;;;;;;;24.40;14.30;;;;;;;6.15;80.93;100960.41;178747;1259;46121;-83
2024/03/19 07:46:25;;;;;;;25.80;14.30;;;;;;;6.06;80.69;100964.90;179156;1256;46120;-83
2024/03/19 07:50:30;;;;;;;23.70;15.20;;;;;;;6.05;81.06;100969.03;179043;1259;46114;-82
2024/03/19 07:54:33;;;;;;;25.40;16.40;;;;;;;6.04;82.47;100969.59;178478;1256;59662;-82
2024/03/19 07:58:36;;;;;;;28.80;17.10;;;;;;;6.24;82.92;100969.63;178781;1257;46101;-84
2024/03/19 08:02:39;;;;;;;25.90;16.30;;;;;;;6.17;81.20;100972.10;178184;1256;45949;-82
2024/03/19 08:06:43;;;;;;;36.20;19.20;;;;;;;6.41;79.17;100979.84;178679;1256;46001;-82
2024/03/19 08:10:46;;;;;;;24.80;13.70;;;;;;;6.51;79.63;100984.40;178925;1256;46573;-82
2024/03/19 08:14:49;;;;;;;23.90;17.60;;;;;;;6.44;78.53;100985.31;178168;1256;58587;-83
2024/03/19 08:18:53;;;;;;;30.40;18.80;;;;;;;6.63;76.98;100988.35;178752;1256;46242;-83
2024/03/19 08:22:56;;;;;;;27.90;16.30;;;;;;;6.42;76.08;100984.00;177963;1256;46213;-83
2024/03/19 08:26:59;;;;;;;29.20;17.60;;;;;;;6.60;75.32;100985.89;178461;1258;46138;-82
2024/03/19 08:31:04;;;;;;;31.30;16.10;;;;;;;6.84;74.55;100988.12;179128;1255;46122;-83
2024/03/19 08:35:10;;;;;;;29.50;17.30;;;;;;;6.81;73.69;100988.45;178759;1256;58053;-83
2024/03/19 08:39:14;;;;;;;36.80;20.20;;;;;;;6.85;74.00;100986.84;179066;1255;46116;-81
2024/03/19 08:43:16;;;;;;;31.90;16.20;;;;;;;7.14;72.89;100987.86;178509;1257;45988;-83
2024/03/19 08:47:19;;;;;;;14.20;12.10;;;;;;;7.12;72.87;100986.76;178384;1256;45960;-83
2024/03/19 08:51:22;;;;;;;15.70;10.80;;;;;;;6.96;72.83;100986.94;179164;1259;46027;-84
2024/03/19 08:55:25;;;;;;;14.00;10.80;;;;;;;7.07;74.37;100985.62;178651;1257;59566;-83
2024/03/19 08:59:28;;;;;;;28.20;14.20;;;;;;;7.41;72.94;100988.13;178953;1256;46217;-84
2024/03/19 09:03:31;;;;;;;17.30;12.30;;;;;;;7.71;70.11;100983.02;179324;1255;45030;-83
2024/03/19 09:07:38;;;;;;;10.20;7.00;;;;;;;7.85;67.85;100986.13;178966;1256;46063;-83
2024/03/19 09:11:40;;;;;;;13.90;7.40;;;;;;;7.40;66.24;100985.37;178819;1259;46026;-83
2024/03/19 09:15:44;;;;;;;16.10;10.00;;;;;;;7.04;66.84;100991.58;179699;1259;59302;-83
2024/03/19 09:19:47;;;;;;;15.60;11.50;;;;;;;6.91;68.84;100993.91;178906;1259;46040;-83
2024/03/19 09:23:50;;;;;;;15.10;11.60;;;;;;;7.06;68.09;100996.77;178262;1259;46005;-83
2024/03/19 09:27:53;;;;;;;15.20;9.60;;;;;;;7.19;68.93;100997.62;178424;1257;46032;-82
2024/03/19 09:31:57;;;;;;;14.30;8.90;;;;;;;7.22;68.93;100996.62;178648;1256;46048;-84
2024/03/19 09:36:00;;;;;;;11.30;8.50;;;;;;;7.47;71.32;100992.55;178594;1257;59665;-83
2024/03/19 09:40:06;;;;;;;8.40;6.00;;;;;;;7.95;69.49;100994.90;179620;1256;44436;-83
2024/03/19 09:44:17;;;;;;;8.70;4.80;;;;;;;8.13;63.71;101000.19;179094;1257;44323;-83
2024/03/19 09:48:20;;;;;;;8.00;4.80;;;;;;;8.17;62.72;101003.66;179176;1259;45633;-83
2024/03/19 09:52:24;;;;;;;7.70;6.00;;;;;;;7.99;63.10;101007.54;179452;1259;46428;-83
2024/03/19 09:56:27;;;;;;;8.40;6.40;;;;;;;8.04;67.47;101007.41;178553;1259;59450;-83
2024/03/19 10:00:30;;;;;;;12.80;7.20;;;;;;;8.28;65.95;101004.09;179245;1258;46132;-82
2024/03/19 10:04:33;;;;;;;7.10;6.10;;;;;;;8.18;63.34;101008.19;178756;1257;46062;-83
2024/03/19 10:08:43;;;;;;;6.10;5.30;;;;;;;8.22;62.32;101013.80;177860;1259;46009;-83
2024/03/19 10:12:46;;;;;;;9.80;8.40;;;;;;;8.10;62.85;101010.09;178316;1257;45980;-83
2024/03/19 10:16:51;;;;;;;11.50;7.40;;;;;;;7.90;63.09;101012.33;179612;1259;59280;-83
2024/03/19 10:21:00;;;;;;;13.10;7.80;;;;;;;7.70;60.85;101014.55;178706;1258;46049;-82
2024/03/19 10:25:07;;;;;;;12.90;7.70;;;;;;;7.59;64.06;101013.77;178303;1258;46118;-83
2024/03/19 10:29:16;;;;;;;7.30;5.10;;;;;;;7.46;62.35;101013.63;178358;1259;45989;-84
2024/03/19 10:33:19;;;;;;;7.90;5.50;;;;;;;7.29;62.11;101015.48;180039;1255;46135;-83
2024/03/19 10:37:23;;;;;;;10.80;9.30;;;;;;;7.23;64.39;101015.94;178455;1256;58362;-83
2024/03/19 10:41:30;;;;;;;9.50;6.50;;;;;;;7.41;64.33;101015.65;179424;1260;46225;-83
2024/03/19 10:45:34;;;;;;;7.70;7.00;;;;;;;7.61;62.74;101014.54;179185;1257;44615;-83
2024/03/19 10:49:37;;;;;;;10.30;7.70;;;;;;;7.72;62.78;101015.64;178455;1257;44231;-83
2024/03/19 10:53:42;;;;;;;8.50;7.50;;;;;;;7.90;60.37;101010.21;178823;1257;46029;-83
2024/03/19 10:57:46;;;;;;;7.30;6.60;;;;;;;7.99;61.22;101009.64;179232;1260;59369;-83
2024/03/19 11:01:52;;;;;;;10.80;8.00;;;;;;;8.07;60.59;101009.36;178510;1258;46109;-83
2024/03/19 11:05:58;;;;;;;9.80;6.90;;;;;;;8.17;59.24;101007.71;179195;1258;46007;-83
2024/03/19 11:10:01;;;;;;;10.80;6.90;;;;;;;8.09;62.47;101005.70;178665;1257;46236;-83
2024/03/19 11:14:04;;;;;;;10.70;7.30;;;;;;;8.18;62.32;101002.73;178152;1260;46094;-83
2024/03/19 11:18:13;;;;;;;11.90;8.00;;;;;;;8.31;59.54;100997.20;178350;1257;58327;-84
2024/03/19 11:22:16;;;;;;;11.40;6.70;;;;;;;8.28;58.26;100995.06;179153;1260;224810;-82
2024/03/19 11:26:23;;;;;;;11.60;8.10;;;;;;;8.27;57.88;100992.45;178943;1257;46001;-84
2024/03/19 11:30:26;;;;;;;8.60;6.60;;;;;;;8.30;58.31;100992.80;178467;1259;45893;-83
2024/03/19 11:34:28;;;;;;;12.10;7.00;;;;;;;8.38;59.26;100990.06;179719;1257;44391;-84
2024/03/19 11:38:31;;;;;;;9.50;6.80;;;;;;;8.40;58.22;100981.44;178903;1261;59567;-84
2024/03/19 11:42:35;;;;;;;10.80;7.40;;;;;;;8.48;57.77;100985.21;179640;1256;45340;-83
2024/03/19 11:46:38;;;;;;;10.60;7.40;;;;;;;8.57;57.12;100984.84;179724;1259;44179;-83
2024/03/19 11:50:53;;;;;;;12.80;8.10;;;;;;;8.64;57.07;100980.17;178961;1260;45917;-83
2024/03/19 11:54:59;;;;;;;11.10;7.90;;;;;;;8.43;59.25;100977.38;178125;1256;46121;-82
2024/03/19 11:59:02;;;;;;;9.80;7.40;;;;;;;8.35;60.95;100967.23;178898;1258;59342;-84
2024/03/19 12:03:05;;;;;;;9.40;6.60;;;;;;;8.35;59.79;100966.02;179205;1257;44751;-84
2024/03/19 12:07:12;;;;;;;7.50;5.80;;;;;;;8.46;58.41;100959.15;178711;1257;45941;-83
2024/03/19 12:11:19;;;;;;;11.40;8.10;;;;;;;8.41;58.55;100958.22;179449;1256;44365;-84
2024/03/19 12:15:24;;;;;;;8.20;7.20;;;;;;;8.44;58.65;100960.86;179135;1257;46023;-84
2024/03/19 12:19:29;;;;;;;9.70;7.60;;;;;;;8.43;58.84;100964.08;178347;1260;58855;-84
2024/03/19 12:23:34;;;;;;;9.70;6.90;;;;;;;8.38;58.88;100963.14;179746;1256;46096;-84
2024/03/19 12:27:39;;;;;;;8.70;7.70;;;;;;;8.47;58.30;100960.13;178926;1255;46016;-84
2024/03/19 12:32:14;;;;;;;8.30;7.00;;;;;;;8.43;58.56;100955.10;178997;1255;46002;-83
2024/03/19 12:36:09;;;;;;;10.60;7.70;;;;;;;8.29;59.95;100946.77;178631;1257;45875;-84
2024/03/19 12:40:14;;;;;;;9.70;7.80;;;;;;;8.31;59.36;100944.19;178701;1256;59535;-83
2024/03/19 12:44:17;;;;;;;10.20;8.30;;;;;;;8.37;59.30;100936.20;178422;1258;44181;-84
2024/03/19 12:48:20;;;;;;;7.70;6.90;;;;;;;8.39;60.42;100935.88;178978;1257;44332;-84
2024/03/19 12:52:23;;;;;;;9.20;6.90;;;;;;;8.45;59.80;100934.26;178936;1256;46218;-84
2024/03/19 12:56:26;;;;;;;9.40;7.60;;;;;;;8.50;57.93;100929.57;178813;1257;46121;-84
2024/03/19 13:00:29;;;;;;;19.40;9.00;;;;;;;8.40;59.94;100925.93;178731;1256;59630;-84
2024/03/19 13:04:32;;;;;;;20.30;8.40;;;;;;;8.37;58.57;100919.22;178490;1257;45994;-84
2024/03/19 13:08:35;;;;;;;21.20;7.50;;;;;;;8.32;58.36;100921.52;179071;1255;45895;-84
2024/03/19 13:12:38;;;;;;;9.50;7.60;;;;;;;8.35;58.72;100918.64;178109;1256;46205;-84
2024/03/19 13:16:41;;;;;;;8.00;7.00;;;;;;;8.48;59.53;100918.79;179782;1256;46820;-84
2024/03/19 13:20:44;;;;;;;9.50;7.40;;;;;;;8.54;59.57;100919.98;178840;1257;60140;-84
2024/03/19 13:24:47;;;;;;;7.90;6.80;;;;;;;8.53;58.75;100915.42;178237;1257;46096;-83
2024/03/19 13:28:50;;;;;;;10.90;7.30;;;;;;;8.56;60.06;100912.95;178872;1257;46208;-84
2024/03/19 13:32:55;;;;;;;9.20;6.80;;;;;;;8.73;62.24;100911.36;178747;1257;45410;-84
2024/03/19 13:36:58;;;;;;;12.70;6.90;;;;;;;8.76;58.50;100908.34;178883;1257;44033;-83
2024/03/19 13:41:01;;;;;;;9.50;7.00;;;;;;;8.68;58.90;100906.74;179127;1257;58683;-84
2024/03/19 13:45:07;;;;;;;9.90;8.30;;;;;;;8.64;58.96;100906.09;178336;1256;46225;-84
2024/03/19 13:49:10;;;;;;;15.40;9.80;;;;;;;8.69;58.53;100901.50;178506;1257;46020;-84
2024/03/19 13:53:15;;;;;;;10.80;7.90;;;;;;;8.76;58.05;100900.57;178940;1256;45994;-83
2024/03/19 13:57:17;;;;;;;9.90;6.60;;;;;;;8.81;58.79;100898.27;178924;1256;46099;-84
2024/03/19 14:01:21;;;;;;;12.00;8.70;;;;;;;8.85;57.78;100898.55;179466;1256;59644;-83
2024/03/19 14:05:25;;;;;;;12.10;9.40;;;;;;;8.87;58.22;100899.64;180107;1257;45324;-84
2024/03/19 14:09:31;;;;;;;12.00;8.80;;;;;;;8.83;58.32;100901.89;177853;1257;46198;-84
2024/03/19 14:13:34;;;;;;;11.30;10.00;;;;;;;8.75;58.24;100904.52;178473;1257;46016;-83
2024/03/19 14:17:36;;;;;;;8.80;6.50;;;;;;;8.79;58.98;100903.17;178926;1257;46032;-82
2024/03/19 14:21:42;;;;;;;8.30;7.60;;;;;;;8.66;58.69;100906.15;178753;1257;59268;-83
2024/03/19 14:25:45;;;;;;;9.30;7.50;;;;;;;8.71;58.81;100900.14;178219;1257;46872;-83
2024/03/19 14:29:48;;;;;;;13.00;9.60;;;;;;;8.82;58.32;100904.41;178113;1256;46160;-84
2024/03/19 14:33:51;;;;;;;13.10;7.70;;;;;;;8.86;57.43;100903.64;178276;1257;44176;-82
2024/03/19 14:37:56;;;;;;;10.50;7.40;;;;;;;8.88;57.55;100904.02;179705;1256;44009;-84
2024/03/19 14:41:59;;;;;;;13.20;6.40;;;;;;;8.93;58.97;100899.24;178513;1256;59605;-81
2024/03/19 14:46:02;;;;;;;13.70;9.30;;;;;;;8.65;58.96;100897.85;177716;1257;45961;-80
2024/03/19 14:50:06;;;;;;;25.60;19.80;;;;;;;8.67;58.28;100899.00;178817;1260;46540;-82
2024/03/19 14:54:08;;;;;;;74.20;51.70;;;;;;;8.72;59.00;100892.67;178606;1256;44335;-82
2024/03/19 14:58:12;;;;;;;19.10;11.10;;;;;;;8.76;58.18;100887.09;178308;1256;44020;-82
2024/03/19 15:02:15;;;;;;;14.90;8.20;;;;;;;8.81;57.73;100883.63;179217;1260;58324;-82
2024/03/19 15:06:18;;;;;;;11.00;8.90;;;;;;;8.77;58.51;100876.77;178666;1256;44315;-81
2024/03/19 15:10:22;;;;;;;10.20;8.40;;;;;;;8.76;58.20;100876.66;178489;1256;46102;-82
2024/03/19 15:14:25;;;;;;;9.60;8.30;;;;;;;8.65;58.83;100877.56;178035;1260;46119;-82
2024/03/19 15:18:28;;;;;;;13.10;7.90;;;;;;;8.55;59.84;100875.89;179175;1258;45980;-81
2024/03/19 15:22:31;;;;;;;13.40;9.70;;;;;;;8.52;60.07;100872.87;179139;1256;59633;-83
2024/03/19 15:26:34;;;;;;;14.30;8.30;;;;;;;8.49;60.20;100873.06;178431;1256;46037;-82
2024/03/19 15:30:37;;;;;;;10.20;8.70;;;;;;;8.44;60.78;100873.02;179205;1257;44460;-82
2024/03/19 15:34:40;;;;;;;11.70;8.10;;;;;;;8.35;60.85;100873.61;178774;1257;46170;-83
2024/03/19 15:38:45;;;;;;;12.50;9.30;;;;;;;8.31;60.80;100872.42;178342;1256;46247;-82
2024/03/19 15:42:48;;;;;;;14.00;9.40;;;;;;;8.22;62.08;100874.56;178953;1256;59580;-82
2024/03/19 15:46:51;;;;;;;11.70;8.90;;;;;;;8.19;61.98;100873.55;179881;1256;46098;-83
2024/03/19 15:50:54;;;;;;;12.70;9.20;;;;;;;8.13;62.75;100871.58;179416;1256;44633;-82
2024/03/19 15:54:57;;;;;;;14.00;9.50;;;;;;;8.06;62.09;100871.66;179401;1257;46100;-84
2024/03/19 15:59:00;;;;;;;13.50;9.20;;;;;;;8.06;63.96;100876.97;180347;1257;45969;-84
2024/03/19 16:03:03;;;;;;;10.80;9.30;;;;;;;7.95;64.12;100877.48;178355;1256;59419;-82
2024/03/19 16:07:07;;;;;;;12.20;9.30;;;;;;;7.87;64.48;100880.44;178187;1256;46011;-82
2024/03/19 16:11:14;;;;;;;12.80;9.70;;;;;;;7.83;65.68;100881.67;178597;1260;44725;-82
2024/03/19 16:15:17;;;;;;;13.90;9.60;;;;;;;7.79;66.87;100887.44;178559;1260;46057;-82
2024/03/19 16:19:20;;;;;;;11.30;9.10;;;;;;;7.73;67.74;100888.86;178251;1256;46585;-82
2024/03/19 16:23:23;;;;;;;13.00;9.70;;;;;;;7.63;68.50;100897.02;178152;1255;57913;-82
2024/03/19 16:27:26;;;;;;;14.70;9.10;;;;;;;7.50;68.26;100896.91;179255;1256;45981;-81
2024/03/19 16:31:31;;;;;;;14.60;11.20;;;;;;;7.39;68.51;100898.63;178287;1256;46088;-82
2024/03/19 16:35:34;;;;;;;17.00;9.90;;;;;;;7.26;69.77;100901.64;179194;1256;46090;-82
2024/03/19 16:39:37;;;;;;;12.20;9.90;;;;;;;7.14;70.43;100906.95;178816;1255;46088;-82
2024/03/19 16:43:40;;;;;;;11.50;10.40;;;;;;;7.00;71.15;100906.10;178819;1259;59666;-81
2024/03/19 16:47:45;;;;;;;12.70;9.00;;;;;;;6.88;71.87;100909.06;178587;1256;46221;-81
2024/03/19 16:51:48;;;;;;;13.00;9.10;;;;;;;6.78;72.38;100914.56;178405;1256;46147;-81
2024/03/19 16:55:51;;;;;;;18.80;14.30;;;;;;;6.66;72.96;100916.63;178854;1255;46191;-82
2024/03/19 16:59:53;;;;;;;38.10;25.60;;;;;;;6.53;73.47;100919.10;179081;1256;44136;-81
2024/03/19 17:03:56;;;;;;;251.10;135.20;;;;;;;6.39;74.40;100924.27;178401;1255;58237;-82
2024/03/19 17:07:59;;;;;;;241.80;127.90;;;;;;;6.21;75.53;100927.35;180327;1256;45402;-82
2024/03/19 17:12:02;;;;;;;62.80;34.20;;;;;;;6.06;76.55;100928.29;178458;1255;46425;-81
2024/03/19 17:16:09;;;;;;;32.70;23.80;;;;;;;5.93;77.38;100930.17;178569;1256;45931;-81
2024/03/19 17:20:12;;;;;;;31.70;21.40;;;;;;;5.79;78.31;100931.38;178046;1257;44854;-82
2024/03/19 17:24:15;;;;;;;23.10;14.00;;;;;;;5.66;79.43;100934.02;179450;1255;58338;-82
2024/03/19 17:28:19;;;;;;;21.90;13.60;;;;;;;5.54;79.32;100933.91;179051;1257;46045;-81
2024/03/19 17:32:22;;;;;;;29.40;19.40;;;;;;;5.43;80.18;100935.33;178808;1255;46032;-80
2024/03/19 17:36:26;;;;;;;24.60;17.70;;;;;;;5.31;80.00;100939.43;178298;1256;46276;-81
2024/03/19 17:40:29;;;;;;;25.90;17.50;;;;;;;5.22;80.24;100941.65;178248;1256;46630;-81
2024/03/19 17:44:32;;;;;;;23.40;16.20;;;;;;;5.12;80.48;100946.14;179577;1256;59611;-82
2024/03/19 17:48:36;;;;;;;23.80;16.30;;;;;;;5.01;81.34;100955.83;177954;1256;46055;-82
2024/03/19 17:52:39;;;;;;;26.50;16.30;;;;;;;4.89;81.24;100955.50;178497;1256;44479;-81
2024/03/19 17:56:42;;;;;;;22.30;15.30;;;;;;;4.78;81.45;100950.72;179394;1255;43975;-81
2024/03/19 18:00:45;;;;;;;23.90;15.20;;;;;;;4.70;81.63;100950.02;178829;1255;46379;-81
2024/03/19 18:04:48;;;;;;;25.40;16.10;;;;;;;4.65;82.10;100945.89;179110;1256;60422;-81
2024/03/19 18:08:51;;;;;;;22.10;14.60;;;;;;;4.60;82.31;100945.43;178806;1256;46253;-81
2024/03/19 18:12:54;;;;;;;22.80;16.30;;;;;;;4.52;82.69;100943.31;178919;1255;44221;-82
2024/03/19 18:16:56;;;;;;;28.50;17.30;;;;;;;4.45;83.16;100941.16;178582;1256;46032;-82
2024/03/19 18:21:00;;;;;;;29.30;18.80;;;;;;;4.37;83.52;100943.81;180615;1256;44022;-79
2024/03/19 18:25:03;;;;;;;36.40;19.70;;;;;;;4.32;83.58;100949.29;178771;1256;57430;-84
2024/03/19 18:29:06;;;;;;;61.70;35.50;;;;;;;4.28;84.01;100950.69;178238;1259;45715;-82